Time;durP1;ratioP1;P1;durP2;ratioP2;P2;SDS_P1;SDS_P2;PMS_P1;PMS_P2;Temp;Humidity;BMP_temperature;BMP_pressure;BME280_temperature;BME280_humidity;BME280_pressure;Samples;Min_cycle;Max_cycle;Signal;HPM_P1;HPM_P2
2024/01/21 00:00:47;;;;;;;5.18;2.03;;;-0.60;81.60;;;;;;5026901;28;20098;-73
2024/01/21 00:03:12;;;;;;;4.50;1.53;;;-0.70;80.80;;;;;;5028692;28;20475;-74
2024/01/21 00:05:38;;;;;;;9.00;2.10;;;-0.80;81.60;;;;;;5028509;28;21333;-73
2024/01/21 00:08:04;;;;;;;6.13;1.77;;;-0.90;82.50;;;;;;5027731;28;20033;-74
2024/01/21 00:10:30;;;;;;;5.87;1.83;;;-0.90;82.60;;;;;;5010263;28;20586;-74
2024/01/21 00:12:55;;;;;;;5.35;1.67;;;-0.90;82.00;;;;;;5028355;28;20045;-73
2024/01/21 00:15:22;;;;;;;3.80;1.92;;;-0.70;80.90;;;;;;5027599;28;20105;-73
2024/01/21 00:17:48;;;;;;;4.43;1.70;;;-0.80;81.70;;;;;;5033609;28;20601;-73
2024/01/21 00:20:14;;;;;;;6.40;1.90;;;-0.90;81.40;;;;;;5032632;28;20067;-73
2024/01/21 00:22:40;;;;;;;3.53;1.80;;;-0.90;82.30;;;;;;5031715;28;20571;-73
2024/01/21 00:25:09;;;;;;;4.15;2.38;;;-0.80;81.30;;;;;;5034331;28;20033;-73
2024/01/21 00:27:35;;;;;;;4.68;1.90;;;-0.90;81.70;;;;;;5032870;28;20068;-74
2024/01/21 00:30:01;;;;;;;4.50;2.05;;;-0.90;81.50;;;;;;5031883;28;20556;-73
2024/01/21 00:32:27;;;;;;;4.40;2.03;;;-0.90;82.50;;;;;;5032128;28;20049;-74
2024/01/21 00:34:53;;;;;;;4.03;1.88;;;-1.00;82.00;;;;;;5033053;28;20037;-73
2024/01/21 00:37:19;;;;;;;4.95;1.85;;;-1.10;82.70;;;;;;5031770;28;20049;-73
2024/01/21 00:39:45;;;;;;;5.80;1.88;;;-1.00;81.90;;;;;;5031531;28;20142;-74
2024/01/21 00:42:10;;;;;;;3.97;1.67;;;-1.10;82.30;;;;;;5033074;28;20068;-74
2024/01/21 00:44:37;;;;;;;6.38;2.45;;;-1.10;82.60;;;;;;5031632;28;20394;-73
2024/01/21 00:47:03;;;;;;;4.80;2.13;;;-1.10;82.30;;;;;;5032545;28;20045;-73
2024/01/21 00:49:30;;;;;;;7.15;2.50;;;-1.10;82.50;;;;;;5032983;28;20034;-73
2024/01/21 00:51:56;;;;;;;4.25;1.65;;;-1.00;81.90;;;;;;5032829;28;20534;-73
2024/01/21 00:54:22;;;;;;;5.43;1.93;;;-1.10;82.30;;;;;;5032867;28;20044;-73
2024/01/21 00:56:47;;;;;;;5.10;2.40;;;-1.00;82.00;;;;;;5032820;28;20033;-73
2024/01/21 00:59:13;;;;;;;5.35;2.25;;;-1.00;82.20;;;;;;5030738;28;20561;-74
2024/01/21 01:01:39;;;;;;;4.50;2.00;;;-1.10;82.50;;;;;;5032398;28;20036;-73
2024/01/21 01:04:05;;;;;;;3.88;2.00;;;-1.00;81.60;;;;;;5032950;28;20033;-73
2024/01/21 01:06:32;;;;;;;4.45;2.13;;;-0.90;82.20;;;;;;5033243;28;20040;-73
2024/01/21 01:08:58;;;;;;;3.30;1.30;;;-0.90;84.20;;;;;;5035971;28;20036;-74
2024/01/21 01:11:24;;;;;;;6.78;2.33;;;-1.00;83.00;;;;;;5036257;28;20103;-73
2024/01/21 01:13:50;;;;;;;4.10;1.60;;;-1.40;83.90;;;;;;5033948;28;20144;-73
2024/01/21 01:16:16;;;;;;;3.97;1.70;;;-0.80;81.20;;;;;;5035180;28;20104;-73
2024/01/21 01:18:42;;;;;;;3.90;2.10;;;-0.90;81.50;;;;;;5036341;28;20114;-73
2024/01/21 01:21:10;;;;;;;4.67;2.33;;;-0.90;81.90;;;;;;5034859;28;20606;-73
2024/01/21 01:23:36;;;;;;;4.97;2.73;;;-1.00;84.40;;;;;;5035988;28;20060;-74
2024/01/21 01:26:01;;;;;;;5.00;2.10;;;-1.10;85.00;;;;;;5037695;28;20124;-73
2024/01/21 01:28:27;;;;;;;3.07;1.60;;;-1.30;84.30;;;;;;5034386;28;20055;-73
2024/01/21 01:30:52;;;;;;;5.03;1.97;;;-0.90;80.90;;;;;;5034458;28;20122;-73
2024/01/21 01:33:18;;;;;;;4.17;1.60;;;-0.80;80.40;;;;;;5036618;28;20155;-73
2024/01/21 01:35:44;;;;;;;4.20;1.60;;;-0.80;81.60;;;;;;5034475;28;20398;-73
2024/01/21 01:38:12;;;;;;;4.80;1.77;;;-1.00;82.10;;;;;;5033836;28;20115;-73
2024/01/21 01:40:38;;;;;;;6.63;2.03;;;-1.10;82.40;;;;;;5036061;28;20053;-73
2024/01/21 01:43:04;;;;;;;4.27;1.67;;;-1.00;82.00;;;;;;5035240;28;20044;-73
2024/01/21 01:45:30;;;;;;;3.55;1.63;;;-1.10;81.90;;;;;;5034564;28;20037;-73
2024/01/21 01:47:57;;;;;;;3.72;1.55;;;-1.10;82.50;;;;;;5034849;28;20040;-73
2024/01/21 01:50:23;;;;;;;2.93;1.50;;;-1.10;82.40;;;;;;5034836;28;20036;-73
2024/01/21 01:52:50;;;;;;;4.03;1.63;;;-1.20;82.90;;;;;;5035129;28;20068;-73
2024/01/21 01:55:16;;;;;;;2.97;1.48;;;-1.50;83.40;;;;;;5035693;28;20037;-73
2024/01/21 01:57:45;;;;;;;2.83;1.33;;;-1.50;84.40;;;;;;5033963;28;20067;-73
2024/01/21 02:00:12;;;;;;;4.25;1.83;;;-1.50;83.80;;;;;;5035806;28;20033;-73
2024/01/21 02:02:40;;;;;;;4.07;1.57;;;-1.20;83.00;;;;;;5036146;28;20037;-73
2024/01/21 02:05:07;;;;;;;3.37;1.63;;;-1.30;83.30;;;;;;5035210;28;20033;-73
2024/01/21 02:07:33;;;;;;;4.30;1.60;;;-1.50;83.90;;;;;;5034488;28;20140;-73
2024/01/21 02:10:01;;;;;;;4.33;1.77;;;-1.60;84.20;;;;;;5032803;28;20563;-73
2024/01/21 02:12:27;;;;;;;3.27;1.83;;;-1.40;82.90;;;;;;5035151;28;20037;-74
2024/01/21 02:14:53;;;;;;;3.73;1.80;;;-1.50;83.20;;;;;;5034523;28;20033;-73
2024/01/21 02:17:19;;;;;;;4.72;1.77;;;-1.40;82.60;;;;;;5034427;28;20029;-73
2024/01/21 02:19:45;;;;;;;2.80;1.60;;;-1.20;82.90;;;;;;5035576;28;20033;-73
2024/01/21 02:22:12;;;;;;;3.33;1.83;;;-1.40;83.60;;;;;;5034243;28;20048;-73
2024/01/21 02:24:38;;;;;;;5.70;2.27;;;-1.30;82.50;;;;;;5033338;28;20040;-73
2024/01/21 02:27:04;;;;;;;3.80;1.77;;;-1.20;82.30;;;;;;5034719;28;20460;-73
2024/01/21 02:29:30;;;;;;;5.57;2.37;;;-1.20;83.00;;;;;;5035535;28;20087;-73
2024/01/21 02:31:57;;;;;;;4.40;1.73;;;-1.30;83.40;;;;;;5034705;28;20083;-73
2024/01/21 02:34:23;;;;;;;4.13;1.77;;;-1.30;83.40;;;;;;5035754;28;20033;-73
2024/01/21 02:36:49;;;;;;;3.87;1.60;;;-1.50;84.60;;;;;;5034309;28;20406;-73
2024/01/21 02:39:15;;;;;;;3.70;1.63;;;-1.40;83.30;;;;;;5032671;28;20607;-73
2024/01/21 02:41:40;;;;;;;3.77;1.87;;;-1.30;83.10;;;;;;5034970;28;20037;-73
2024/01/21 02:44:06;;;;;;;3.83;1.20;;;-1.40;82.90;;;;;;5034618;28;20528;-73
2024/01/21 02:46:32;;;;;;;3.20;1.47;;;-1.40;84.00;;;;;;5033269;28;20036;-73
2024/01/21 02:48:57;;;;;;;3.70;1.58;;;-1.50;83.80;;;;;;5035132;28;20032;-73
2024/01/21 02:51:23;;;;;;;2.83;1.27;;;-1.90;85.80;;;;;;5033607;28;20041;-73
2024/01/21 02:53:49;;;;;;;4.27;1.73;;;-1.90;85.80;;;;;;5034638;28;20075;-73
2024/01/21 02:56:22;;;;;;;4.43;2.13;;;-2.00;85.60;;;;;;5035282;28;20041;-73
2024/01/21 02:58:50;;;;;;;4.07;1.03;;;-1.80;84.50;;;;;;5034287;28;20090;-73
2024/01/21 03:01:16;;;;;;;3.57;1.37;;;-1.90;84.20;;;;;;5033306;28;20490;-73
2024/01/21 03:03:41;;;;;;;3.53;1.73;;;-1.90;85.80;;;;;;5034096;28;20032;-73
2024/01/21 03:06:07;;;;;;;4.27;1.90;;;-1.90;86.50;;;;;;5034456;28;20060;-73
2024/01/21 03:08:33;;;;;;;2.67;1.10;;;-2.00;85.00;;;;;;5033190;28;20056;-73
2024/01/21 03:10:58;;;;;;;3.30;1.30;;;-2.00;85.90;;;;;;5033784;28;20040;-73
2024/01/21 03:13:24;;;;;;;4.37;1.90;;;-1.90;84.90;;;;;;5034408;28;20037;-74
2024/01/21 03:15:50;;;;;;;3.63;1.30;;;-2.00;85.30;;;;;;5032582;28;20036;-73
2024/01/21 03:18:15;;;;;;;6.17;1.83;;;-1.70;84.30;;;;;;5032882;28;20036;-74
2024/01/21 03:20:41;;;;;;;4.07;1.63;;;-1.60;84.20;;;;;;5034901;28;20075;-73
2024/01/21 03:23:06;;;;;;;4.50;1.40;;;-1.60;83.80;;;;;;5033767;28;20033;-73
2024/01/21 03:25:32;;;;;;;3.07;1.53;;;-1.70;84.60;;;;;;5032888;28;20562;-73
2024/01/21 03:27:58;;;;;;;3.63;1.70;;;-1.70;84.70;;;;;;5032499;28;20044;-74
2024/01/21 03:30:23;;;;;;;4.17;2.20;;;-1.90;85.00;;;;;;5033525;28;20033;-73
2024/01/21 03:32:49;;;;;;;3.70;1.50;;;-1.80;84.40;;;;;;5032570;28;20029;-74
2024/01/21 03:35:14;;;;;;;3.77;1.70;;;-1.70;84.30;;;;;;5034606;28;20052;-74
2024/01/21 03:37:40;;;;;;;3.40;1.50;;;-1.80;84.60;;;;;;5032165;28;20041;-73
2024/01/21 03:40:06;;;;;;;2.90;1.40;;;-1.80;84.50;;;;;;5031525;28;20495;-74
2024/01/21 03:42:32;;;;;;;2.67;1.63;;;-1.60;83.70;;;;;;5033150;28;20726;-74
2024/01/21 03:44:58;;;;;;;3.33;1.53;;;-1.90;85.50;;;;;;5032904;28;20036;-73
2024/01/21 03:47:23;;;;;;;3.10;1.77;;;-1.80;84.30;;;;;;5032398;28;20040;-73
2024/01/21 03:49:51;;;;;;;4.03;1.80;;;-1.70;84.10;;;;;;5033804;28;20041;-73
2024/01/21 03:52:17;;;;;;;3.90;1.93;;;-1.60;83.30;;;;;;5033819;28;20029;-73
2024/01/21 03:54:43;;;;;;;5.37;1.60;;;-1.50;83.10;;;;;;5033045;28;20144;-74
2024/01/21 03:57:08;;;;;;;5.33;1.77;;;-1.50;83.20;;;;;;5032312;28;20039;-73
2024/01/21 03:59:34;;;;;;;3.57;1.60;;;-1.50;83.60;;;;;;5034374;28;20040;-73
2024/01/21 04:02:00;;;;;;;5.43;1.90;;;-1.60;84.50;;;;;;5030023;28;20046;-74
2024/01/21 04:04:27;;;;;;;3.70;1.57;;;-1.70;84.30;;;;;;5028432;28;20029;-74
2024/01/21 04:06:52;;;;;;;4.20;1.57;;;-1.70;85.00;;;;;;5029029;28;20045;-74
2024/01/21 04:09:23;;;;;;;3.67;1.37;;;-1.70;83.80;;;;;;5027802;28;20064;-74
2024/01/21 04:11:51;;;;;;;3.30;1.40;;;-1.60;83.50;;;;;;5027594;28;20041;-73
2024/01/21 04:14:17;;;;;;;6.00;2.80;;;-1.80;84.90;;;;;;5029568;28;20032;-74
2024/01/21 04:16:43;;;;;;;3.57;1.50;;;-1.80;84.60;;;;;;5026527;28;20032;-74
2024/01/21 04:19:09;;;;;;;5.50;1.97;;;-2.10;87.20;;;;;;5023884;28;20079;-74
2024/01/21 04:21:36;;;;;;;3.53;1.47;;;-2.20;86.90;;;;;;5025488;28;20184;-74
2024/01/21 04:24:02;;;;;;;3.60;1.63;;;-2.10;86.90;;;;;;5024866;28;20435;-74
2024/01/21 04:26:29;;;;;;;3.77;1.60;;;-2.20;85.90;;;;;;5028264;28;20055;-74
2024/01/21 04:28:54;;;;;;;5.17;1.67;;;-1.80;84.30;;;;;;5028469;28;20038;-73
2024/01/21 04:31:20;;;;;;;4.53;2.17;;;-1.70;83.80;;;;;;5029258;28;20044;-74
2024/01/21 04:33:46;;;;;;;4.27;1.70;;;-2.00;85.30;;;;;;5028238;28;20044;-74
2024/01/21 04:36:18;;;;;;;5.47;1.53;;;-1.90;84.50;;;;;;5028966;28;20428;-74
2024/01/21 04:38:45;;;;;;;5.37;2.00;;;-2.00;84.70;;;;;;5029748;28;20115;-74
2024/01/21 04:41:15;;;;;;;2.87;1.30;;;-1.80;84.00;;;;;;5031830;28;20057;-73
2024/01/21 04:43:42;;;;;;;3.83;1.73;;;-1.80;83.80;;;;;;5031995;28;20060;-74
2024/01/21 04:46:07;;;;;;;3.57;1.30;;;-1.70;83.70;;;;;;5032735;28;20025;-73
2024/01/21 04:48:33;;;;;;;3.10;1.33;;;-1.70;83.20;;;;;;5032943;28;20471;-74
2024/01/21 04:50:59;;;;;;;4.17;1.80;;;-1.70;84.10;;;;;;5029500;28;20102;-74
2024/01/21 04:53:25;;;;;;;4.30;1.50;;;-1.70;83.10;;;;;;5027262;28;20415;-74
2024/01/21 04:55:51;;;;;;;3.37;1.37;;;-1.80;84.00;;;;;;5032975;28;20124;-74
2024/01/21 04:58:16;;;;;;;4.40;1.40;;;-1.90;84.40;;;;;;5031647;28;20045;-73
2024/01/21 05:00:42;;;;;;;3.87;1.60;;;-1.90;84.40;;;;;;5032495;28;20033;-73
2024/01/21 05:03:08;;;;;;;4.93;1.63;;;-1.70;83.10;;;;;;5032495;28;20048;-73
2024/01/21 05:05:34;;;;;;;5.00;1.50;;;-1.70;83.40;;;;;;5032085;28;20051;-74
2024/01/21 05:08:00;;;;;;;3.73;1.67;;;-1.80;84.00;;;;;;5032378;28;20042;-74
2024/01/21 05:10:25;;;;;;;3.23;1.73;;;-1.90;84.00;;;;;;5032594;28;20033;-73
2024/01/21 05:12:51;;;;;;;4.23;1.57;;;-1.90;83.90;;;;;;5032127;28;20094;-74
2024/01/21 05:15:17;;;;;;;5.83;1.60;;;-2.20;84.70;;;;;;5031358;28;20033;-74
2024/01/21 05:17:42;;;;;;;3.40;1.40;;;-2.10;85.60;;;;;;5030415;28;20241;-73
2024/01/21 05:20:09;;;;;;;3.43;1.27;;;-2.20;85.80;;;;;;5029580;28;20675;-73
2024/01/21 05:22:35;;;;;;;5.27;1.90;;;-2.20;85.80;;;;;;5026302;28;20186;-73
2024/01/21 05:25:03;;;;;;;4.23;1.60;;;-2.00;84.50;;;;;;5030330;28;20147;-74
2024/01/21 05:27:29;;;;;;;2.67;1.20;;;-2.00;85.20;;;;;;5029591;28;20120;-74
2024/01/21 05:29:55;;;;;;;2.03;1.10;;;-2.00;85.70;;;;;;5028814;28;20817;-74
2024/01/21 05:32:20;;;;;;;2.30;1.20;;;-2.20;85.00;;;;;;5028109;28;20402;-74
2024/01/21 05:34:46;;;;;;;4.17;1.57;;;-2.10;85.40;;;;;;5029491;28;20079;-74
2024/01/21 05:37:12;;;;;;;2.97;1.30;;;-2.00;84.60;;;;;;5028504;28;20036;-74
2024/01/21 05:39:38;;;;;;;4.33;1.30;;;-2.00;85.00;;;;;;5027791;28;20144;-74
2024/01/21 05:42:05;;;;;;;4.17;1.50;;;-2.30;86.20;;;;;;5029160;28;20140;-74
2024/01/21 05:44:31;;;;;;;3.33;1.60;;;-2.30;86.20;;;;;;5028534;28;21567;-74
2024/01/21 05:46:57;;;;;;;3.47;1.53;;;-2.10;84.40;;;;;;5028453;28;20061;-74
2024/01/21 05:49:24;;;;;;;3.80;1.33;;;-2.10;84.40;;;;;;5032015;28;20065;-74
2024/01/21 05:51:50;;;;;;;3.33;1.50;;;-2.00;85.30;;;;;;5030115;28;20049;-73
2024/01/21 05:54:19;;;;;;;3.43;1.57;;;-2.00;84.00;;;;;;5029147;28;20037;-74
2024/01/21 05:56:44;;;;;;;2.07;1.00;;;-1.80;82.90;;;;;;5031752;28;20045;-74
2024/01/21 05:59:12;;;;;;;3.30;1.37;;;-1.80;83.90;;;;;;5031702;28;20031;-74
2024/01/21 06:01:39;;;;;;;3.03;1.30;;;-1.90;84.00;;;;;;5029565;28;20067;-74
2024/01/21 06:04:04;;;;;;;3.17;1.30;;;-2.00;84.80;;;;;;5031716;28;20037;-74
2024/01/21 06:06:30;;;;;;;2.00;1.00;;;-2.00;83.90;;;;;;5031701;28;20032;-74
2024/01/21 06:08:55;;;;;;;3.33;1.33;;;-2.10;85.00;;;;;;5027583;28;20029;-73
2024/01/21 06:11:21;;;;;;;4.00;1.50;;;-2.20;84.90;;;;;;5027850;28;21255;-74
2024/01/21 06:13:47;;;;;;;3.60;1.20;;;-2.10;84.10;;;;;;5010005;28;20052;-74
2024/01/21 06:16:16;;;;;;;3.70;1.20;;;-2.00;83.20;;;;;;5026706;28;20033;-73
2024/01/21 06:18:42;;;;;;;2.07;1.00;;;-1.90;83.20;;;;;;5025657;28;20632;-74
2024/01/21 06:21:08;;;;;;;2.87;1.10;;;-1.90;83.60;;;;;;5027700;28;20032;-74
2024/01/21 06:23:33;;;;;;;5.90;1.33;;;-2.00;84.30;;;;;;5025260;28;20056;-74
2024/01/21 06:25:59;;;;;;;2.83;1.07;;;-1.80;82.50;;;;;;5025763;28;20040;-74
2024/01/21 06:28:25;;;;;;;3.50;1.17;;;-1.90;84.60;;;;;;5027710;28;20862;-74
2024/01/21 06:30:50;;;;;;;2.77;1.67;;;-2.10;85.80;;;;;;5027344;28;20194;-74
2024/01/21 06:33:16;;;;;;;3.33;1.40;;;-2.20;85.40;;;;;;5026747;28;20033;-74
2024/01/21 06:35:42;;;;;;;2.27;0.90;;;-2.10;84.20;;;;;;5028337;28;20037;-73
2024/01/21 06:38:07;;;;;;;3.07;1.10;;;-1.90;83.20;;;;;;5027658;28;20435;-73
2024/01/21 06:40:33;;;;;;;3.57;1.47;;;-2.10;85.40;;;;;;5024219;28;21892;-74
2024/01/21 06:42:59;;;;;;;3.07;1.30;;;-2.20;86.40;;;;;;5025842;28;20036;-74
2024/01/21 06:45:25;;;;;;;3.30;1.40;;;-2.30;86.60;;;;;;5027997;28;20076;-74
2024/01/21 06:47:51;;;;;;;2.20;1.20;;;-2.30;85.40;;;;;;5025826;28;20090;-74
2024/01/21 06:50:17;;;;;;;3.27;1.57;;;-2.40;88.00;;;;;;5027512;28;20045;-74
2024/01/21 06:52:42;;;;;;;2.87;1.20;;;-2.20;85.40;;;;;;5025844;28;20063;-73
2024/01/21 06:55:09;;;;;;;3.67;1.47;;;-2.00;84.20;;;;;;5026372;28;20110;-74
2024/01/21 06:57:34;;;;;;;4.53;1.83;;;-2.00;84.20;;;;;;5026657;28;20040;-75
2024/01/21 07:00:02;;;;;;;2.47;1.00;;;-2.10;85.70;;;;;;5028752;28;20045;-74
2024/01/21 07:02:27;;;;;;;2.37;1.07;;;-2.10;84.90;;;;;;5030770;28;20045;-74
2024/01/21 07:04:53;;;;;;;3.37;1.43;;;-2.20;86.00;;;;;;5028602;28;20044;-75
2024/01/21 07:07:18;;;;;;;3.53;1.40;;;-2.10;85.50;;;;;;5029755;28;20489;-75
2024/01/21 07:09:44;;;;;;;3.87;1.30;;;-2.20;85.80;;;;;;5023319;28;20025;-75
2024/01/21 07:12:10;;;;;;;3.83;1.60;;;-2.20;85.00;;;;;;5019375;28;20049;-74
2024/01/21 07:14:35;;;;;;;3.77;1.27;;;-1.90;83.60;;;;;;5021128;28;20106;-74
2024/01/21 07:17:03;;;;;;;2.37;1.00;;;-2.00;84.40;;;;;;5025547;28;20063;-74
2024/01/21 07:19:29;;;;;;;2.07;1.00;;;-2.00;84.40;;;;;;5023535;28;20066;-74
2024/01/21 07:21:54;;;;;;;4.17;1.30;;;-2.00;84.70;;;;;;5027345;28;20501;-73
2024/01/21 07:24:20;;;;;;;2.30;0.90;;;-2.00;84.30;;;;;;5023870;28;20076;-75
2024/01/21 07:26:46;;;;;;;4.30;1.07;;;-2.00;84.40;;;;;;5025428;28;20041;-74
2024/01/21 07:29:13;;;;;;;3.87;1.63;;;-1.90;84.10;;;;;;5024925;28;20098;-75
2024/01/21 07:31:39;;;;;;;3.93;1.97;;;-2.00;83.90;;;;;;5025381;28;20041;-75
2024/01/21 07:34:09;;;;;;;4.27;1.70;;;-1.90;84.00;;;;;;5029511;28;20044;-75
2024/01/21 07:36:35;;;;;;;2.97;1.10;;;-1.90;84.30;;;;;;5027506;28;20589;-79
2024/01/21 07:39:01;;;;;;;3.20;1.30;;;-1.90;84.50;;;;;;5025262;28;20055;-75
2024/01/21 07:41:26;;;;;;;2.67;1.03;;;-1.90;83.40;;;;;;5021847;28;20739;-75
2024/01/21 07:43:52;;;;;;;3.50;1.20;;;-1.80;83.20;;;;;;5024240;28;20116;-75
2024/01/21 07:46:18;;;;;;;3.83;1.53;;;-1.80;83.50;;;;;;5023524;28;20575;-75
2024/01/21 07:48:43;;;;;;;3.63;1.53;;;-2.00;84.10;;;;;;5023618;28;20037;-76
2024/01/21 07:51:09;;;;;;;3.30;1.63;;;-1.90;84.30;;;;;;5024902;28;20045;-76
2024/01/21 07:53:35;;;;;;;5.53;1.40;;;-1.90;84.30;;;;;;5026283;28;20044;-76
2024/01/21 07:56:00;;;;;;;3.50;1.60;;;-1.80;83.90;;;;;;5022948;28;20028;-76
2024/01/21 07:58:26;;;;;;;3.40;1.43;;;-1.80;82.60;;;;;;5026082;28;20390;-76
2024/01/21 08:00:51;;;;;;;3.63;1.40;;;-1.80;83.30;;;;;;5024760;28;20037;-75
2024/01/21 08:03:17;;;;;;;3.13;1.70;;;-1.70;82.60;;;;;;5023810;28;20044;-76
2024/01/21 08:05:43;;;;;;;3.40;1.50;;;-1.70;83.10;;;;;;5024882;28;20032;-75
2024/01/21 08:08:09;;;;;;;3.17;1.30;;;-1.60;82.00;;;;;;5026774;28;20067;-75
2024/01/21 08:10:34;;;;;;;3.87;1.20;;;-1.60;82.20;;;;;;5024146;28;20064;-77
2024/01/21 08:13:00;;;;;;;3.07;1.30;;;-1.70;83.00;;;;;;5025099;28;20037;-75
2024/01/21 08:15:26;;;;;;;4.63;1.60;;;-1.70;82.50;;;;;;5025219;28;20475;-75
2024/01/21 08:17:51;;;;;;;3.10;1.30;;;-1.60;81.60;;;;;;5025785;28;20048;-75
2024/01/21 08:20:17;;;;;;;2.27;0.77;;;-1.60;82.00;;;;;;5024396;28;20099;-76
2024/01/21 08:22:43;;;;;;;3.13;1.40;;;-1.50;82.50;;;;;;5024700;28;20048;-76
2024/01/21 08:25:09;;;;;;;2.50;0.90;;;-1.60;82.20;;;;;;5025846;28;20521;-76
2024/01/21 08:27:35;;;;;;;2.87;1.50;;;-1.50;82.40;;;;;;5027359;28;20112;-76
2024/01/21 08:30:04;;;;;;;4.10;1.70;;;-1.60;82.40;;;;;;5027631;28;20061;-76
2024/01/21 08:32:29;;;;;;;3.73;1.40;;;-1.60;83.60;;;;;;5026616;28;20069;-77
2024/01/21 08:34:55;;;;;;;3.17;1.30;;;-1.80;84.50;;;;;;5028214;28;20573;-76
2024/01/21 08:37:21;;;;;;;3.20;1.10;;;-1.70;83.30;;;;;;5028093;28;20475;-76
2024/01/21 08:39:48;;;;;;;3.30;1.17;;;-1.60;83.20;;;;;;5025330;28;20283;-76
2024/01/21 08:42:14;;;;;;;5.40;2.27;;;-1.50;81.80;;;;;;5021818;28;20032;-76
2024/01/21 08:44:39;;;;;;;8.20;2.23;;;-1.50;81.60;;;;;;5022268;28;20025;-76
2024/01/21 08:47:05;;;;;;;3.40;1.67;;;-1.30;82.20;;;;;;5025098;28;20099;-76
2024/01/21 08:49:31;;;;;;;2.27;1.03;;;-1.40;81.30;;;;;;5023880;28;20040;-76
2024/01/21 08:51:56;;;;;;;3.20;1.50;;;-1.40;81.40;;;;;;5023022;28;20052;-76
2024/01/21 08:54:22;;;;;;;2.97;1.10;;;-1.30;81.30;;;;;;5028437;28;20106;-77
2024/01/21 08:56:48;;;;;;;3.83;1.77;;;-1.30;81.30;;;;;;5029952;28;20131;-76
2024/01/21 08:59:14;;;;;;;1.90;1.10;;;-1.30;80.60;;;;;;5028436;28;20120;-76
2024/01/21 09:01:39;;;;;;;4.10;1.07;;;-1.20;79.90;;;;;;5027548;28;20056;-76
2024/01/21 09:04:05;;;;;;;2.67;1.33;;;-1.20;80.50;;;;;;5030036;28;20466;-76
2024/01/21 09:06:31;;;;;;;4.27;2.13;;;-1.30;80.60;;;;;;5029095;28;20075;-76
2024/01/21 09:08:56;;;;;;;3.83;1.90;;;-1.20;81.30;;;;;;5028552;28;21728;-76
2024/01/21 09:11:23;;;;;;;4.37;1.80;;;-1.30;81.30;;;;;;5025971;28;20048;-76
2024/01/21 09:13:49;;;;;;;2.90;1.40;;;-1.20;80.60;;;;;;5025497;28;20031;-76
2024/01/21 09:16:19;;;;;;;4.67;1.70;;;-1.10;80.80;;;;;;5025978;28;20037;-76
2024/01/21 09:18:46;;;;;;;2.77;1.10;;;-1.20;82.10;;;;;;5027129;28;20044;-77
2024/01/21 09:21:12;;;;;;;2.55;1.10;;;-1.10;81.30;;;;;;5027891;28;20029;-76
2024/01/21 09:23:37;;;;;;;2.90;1.35;;;-1.10;83.20;;;;;;5026100;28;20036;-76
2024/01/21 09:26:03;;;;;;;1.97;1.00;;;-1.20;83.00;;;;;;5027388;28;20033;-76
2024/01/21 09:28:29;;;;;;;3.07;1.20;;;-1.20;82.70;;;;;;5030348;28;20740;-78
2024/01/21 09:30:54;;;;;;;3.27;1.33;;;-1.20;82.70;;;;;;5031960;28;20071;-76
2024/01/21 09:33:20;;;;;;;3.05;1.60;;;-1.10;82.20;;;;;;5032979;28;20047;-76
2024/01/21 09:35:46;;;;;;;2.50;0.93;;;-1.20;84.40;;;;;;5032122;28;20064;-76
2024/01/21 09:38:14;;;;;;;1.77;0.90;;;-1.30;82.50;;;;;;5031964;28;20029;-76
2024/01/21 09:40:40;;;;;;;3.80;1.43;;;-1.20;82.30;;;;;;5032164;28;20060;-75
2024/01/21 09:43:06;;;;;;;5.13;1.10;;;-1.00;81.20;;;;;;5032796;28;20044;-75
2024/01/21 09:45:37;;;;;;;1.55;0.80;;;-1.10;81.50;;;;;;5030830;28;20025;-77
2024/01/21 09:48:04;;;;;;;5.00;1.40;;;-1.00;81.00;;;;;;5031880;28;20033;-76
2024/01/21 09:50:31;;;;;;;3.13;1.33;;;-0.90;79.80;;;;;;5032115;28;20040;-76
2024/01/21 09:52:57;;;;;;;2.60;1.10;;;-0.80;80.50;;;;;;5031004;28;20894;-76
2024/01/21 09:55:23;;;;;;;2.25;1.00;;;-0.80;81.40;;;;;;5031664;28;20052;-76
2024/01/21 09:57:50;;;;;;;4.53;1.30;;;-0.80;81.50;;;;;;5032079;28;20537;-77
2024/01/21 10:00:17;;;;;;;3.22;1.23;;;-0.80;82.30;;;;;;5031012;28;20029;-76
2024/01/21 10:02:46;;;;;;;2.28;1.15;;;-0.70;81.80;;;;;;5030619;28;20123;-76
2024/01/21 10:05:13;;;;;;;2.03;1.10;;;-0.70;82.20;;;;;;5033065;28;20099;-76
2024/01/21 10:07:39;;;;;;;2.42;1.27;;;-0.70;81.70;;;;;;5031462;28;20025;-75
2024/01/21 10:10:06;;;;;;;4.00;1.30;;;-0.70;82.00;;;;;;5029474;28;20037;-76
2024/01/21 10:12:33;;;;;;;2.75;1.38;;;-0.60;82.30;;;;;;5032440;28;20052;-76
2024/01/21 10:14:59;;;;;;;3.92;1.38;;;-0.60;82.20;;;;;;5030973;28;20124;-76
2024/01/21 10:17:25;;;;;;;4.32;2.05;;;-0.60;82.60;;;;;;5030547;28;20429;-76
2024/01/21 10:19:53;;;;;;;3.72;1.67;;;-0.80;82.10;;;;;;5031822;28;20040;-76
2024/01/21 10:22:21;;;;;;;5.35;2.03;;;-0.70;82.70;;;;;;5031487;28;20056;-76
2024/01/21 10:24:49;;;;;;;6.00;2.40;;;-0.60;81.60;;;;;;5031239;28;20029;-76
2024/01/21 10:27:18;;;;;;;4.47;2.47;;;-0.40;80.50;;;;;;5030484;28;20673;-76
2024/01/21 10:29:45;;;;;;;4.18;1.90;;;-0.30;80.60;;;;;;5031240;28;20119;-76
2024/01/21 10:32:13;;;;;;;17.05;11.50;;;-0.20;79.40;;;;;;5030242;28;20457;-76
2024/01/21 10:34:40;;;;;;;8.15;7.07;;;-0.20;79.20;;;;;;5030158;28;20478;-76
2024/01/21 10:37:07;;;;;;;6.68;5.97;;;-0.10;80.10;;;;;;5030661;28;20046;-76
2024/01/21 10:39:36;;;;;;;5.50;2.00;;;0.00;79.90;;;;;;5030137;28;20144;-77
2024/01/21 10:42:02;;;;;;;2.83;1.40;;;0.20;78.60;;;;;;5030402;28;20028;-76
2024/01/21 10:44:28;;;;;;;3.17;1.20;;;0.30;80.10;;;;;;5031897;28;20037;-76
2024/01/21 10:46:55;;;;;;;3.45;1.88;;;0.60;78.10;;;;;;5030442;28;20037;-76
2024/01/21 10:49:21;;;;;;;6.20;1.52;;;0.60;77.80;;;;;;5029891;28;20033;-76
2024/01/21 10:51:51;;;;;;;2.65;1.27;;;0.60;78.10;;;;;;5031553;28;20078;-76
2024/01/21 10:54:16;;;;;;;3.15;1.42;;;0.70;76.60;;;;;;5032493;28;20041;-77
2024/01/21 10:56:43;;;;;;;7.15;4.20;;;0.70;76.70;;;;;;5030116;28;20706;-76
2024/01/21 10:59:10;;;;;;;8.27;5.43;;;1.00;78.20;;;;;;5030414;28;20609;-76
2024/01/21 11:01:39;;;;;;;13.43;8.25;;;1.10;78.40;;;;;;5031139;28;20422;-77
2024/01/21 11:04:11;;;;;;;8.07;4.70;;;1.30;78.10;;;;;;5030278;28;20041;-76
2024/01/21 11:06:42;;;;;;;10.48;4.07;;;1.50;78.10;;;;;;5030028;28;20106;-76
2024/01/21 11:09:09;;;;;;;8.57;5.78;;;1.60;78.40;;;;;;5031525;28;20061;-75
2024/01/21 11:11:42;;;;;;;7.97;4.78;;;1.80;77.80;;;;;;5030399;28;20033;-77
2024/01/21 11:14:31;;;;;;;7.03;4.20;;;1.90;76.90;;;;;;5030048;28;20090;-76
2024/01/21 11:16:59;;;;;;;3.58;2.10;;;2.10;77.30;;;;;;5028357;28;20041;-76
2024/01/21 11:19:25;;;;;;;3.40;1.77;;;2.00;76.30;;;;;;5029854;28;20041;-75
2024/01/21 11:21:55;;;;;;;4.63;1.70;;;2.10;76.80;;;;;;5029956;28;20097;-76
2024/01/21 11:24:29;;;;;;;2.78;1.30;;;2.00;75.30;;;;;;5029301;28;20028;-75
2024/01/21 11:26:57;;;;;;;3.93;1.20;;;2.20;75.10;;;;;;5029882;28;20579;-76
2024/01/21 11:29:28;;;;;;;3.25;1.70;;;2.00;73.40;;;;;;5029398;28;20292;-75
2024/01/21 11:31:56;;;;;;;3.50;1.63;;;2.10;76.00;;;;;;5029852;28;20055;-76
2024/01/21 11:34:22;;;;;;;7.85;3.53;;;2.30;77.00;;;;;;5029288;28;20284;-75
2024/01/21 11:36:48;;;;;;;8.95;5.35;;;2.40;75.70;;;;;;5028489;28;20033;-76
2024/01/21 11:39:15;;;;;;;5.60;2.72;;;2.40;76.70;;;;;;5029713;28;20129;-75
2024/01/21 11:41:44;;;;;;;5.03;2.25;;;2.20;77.30;;;;;;5028382;28;20549;-75
2024/01/21 11:44:09;;;;;;;4.28;1.65;;;2.20;76.30;;;;;;5028401;28;23121;-76
2024/01/21 11:46:36;;;;;;;3.75;1.55;;;2.10;76.40;;;;;;5029893;28;20029;-76
2024/01/21 11:49:02;;;;;;;5.18;1.65;;;2.20;76.00;;;;;;5028917;28;20070;-75
2024/01/21 11:51:28;;;;;;;2.85;1.35;;;2.20;75.10;;;;;;5028612;28;22109;-76
2024/01/21 11:53:54;;;;;;;4.40;2.10;;;2.30;74.40;;;;;;5029346;28;20359;-77
2024/01/21 11:56:19;;;;;;;3.97;1.77;;;2.40;75.80;;;;;;5030533;28;20048;-76
2024/01/21 11:58:45;;;;;;;3.35;1.38;;;2.50;76.80;;;;;;5027041;28;21408;-74
2024/01/21 12:01:11;;;;;;;4.95;1.73;;;2.80;74.00;;;;;;5032855;28;20037;-75
2024/01/21 12:03:37;;;;;;;4.70;2.33;;;2.70;74.00;;;;;;5033397;28;20086;-76
2024/01/21 12:06:04;;;;;;;3.13;1.50;;;2.60;73.70;;;;;;5015608;28;20732;-76
2024/01/21 12:08:31;;;;;;;3.13;1.30;;;2.70;73.90;;;;;;5026047;28;20025;-77
2024/01/21 12:10:56;;;;;;;3.20;1.50;;;2.80;74.20;;;;;;5026266;28;20037;-77
2024/01/21 12:13:22;;;;;;;7.43;1.90;;;2.70;72.90;;;;;;5028087;28;20046;-75
2024/01/21 12:15:51;;;;;;;4.25;1.83;;;2.90;75.20;;;;;;5025950;28;20104;-77
2024/01/21 12:18:17;;;;;;;4.75;1.40;;;2.90;75.10;;;;;;5024749;28;20048;-78
2024/01/21 12:20:43;;;;;;;4.25;1.48;;;2.80;74.00;;;;;;5026237;28;20033;-77
2024/01/21 12:23:22;;;;;;;3.20;1.63;;;2.70;74.10;;;;;;5025273;28;20094;-79
2024/01/21 12:25:48;;;;;;;2.80;1.38;;;2.70;74.10;;;;;;5026780;28;20118;-77
2024/01/21 12:28:14;;;;;;;5.13;1.60;;;2.70;75.10;;;;;;5024907;28;20180;-76
2024/01/21 12:30:40;;;;;;;8.45;1.83;;;2.80;75.60;;;;;;5006526;28;20433;-78
2024/01/21 12:33:05;;;;;;;5.70;1.80;;;2.70;74.20;;;;;;5026096;28;20041;-77
2024/01/21 12:35:31;;;;;;;4.57;1.85;;;2.80;74.40;;;;;;5024706;28;20041;-76
2024/01/21 12:37:59;;;;;;;3.78;1.85;;;2.80;75.30;;;;;;5023039;28;20040;-76
2024/01/21 12:40:25;;;;;;;4.65;1.90;;;2.80;74.70;;;;;;5025008;28;20091;-77
2024/01/21 12:42:52;;;;;;;4.60;1.65;;;2.80;75.80;;;;;;5024606;28;20167;-77